sensor_id;sensor_type;location;lat;lon;timestamp;P1;durP1;ratioP1;P2;durP2;ratioP2
5499;SDS011;2772;42.700;23.304;2022-12-07T00:01:40;36.23;;;15.50;;
5499;SDS011;2772;42.700;23.304;2022-12-07T00:04:09;30.47;;;15.57;;
5499;SDS011;2772;42.700;23.304;2022-12-07T00:06:38;32.60;;;17.43;;
5499;SDS011;2772;42.700;23.304;2022-12-07T00:09:09;27.83;;;16.00;;
5499;SDS011;2772;42.700;23.304;2022-12-07T00:11:38;33.37;;;15.67;;
5499;SDS011;2772;42.700;23.304;2022-12-07T00:14:06;32.20;;;16.57;;
5499;SDS011;2772;42.700;23.304;2022-12-07T00:16:36;32.20;;;16.40;;
5499;SDS011;2772;42.700;23.304;2022-12-07T00:19:04;34.77;;;16.90;;
5499;SDS011;2772;42.700;23.304;2022-12-07T00:21:33;33.03;;;17.83;;
5499;SDS011;2772;42.700;23.304;2022-12-07T00:24:09;30.97;;;17.10;;
5499;SDS011;2772;42.700;23.304;2022-12-07T00:26:38;34.40;;;17.20;;
5499;SDS011;2772;42.700;23.304;2022-12-07T00:29:06;35.43;;;17.27;;
5499;SDS011;2772;42.700;23.304;2022-12-07T00:31:36;32.87;;;16.90;;
5499;SDS011;2772;42.700;23.304;2022-12-07T00:34:04;24.30;;;15.30;;
5499;SDS011;2772;42.700;23.304;2022-12-07T00:36:31;32.23;;;16.70;;
5499;SDS011;2772;42.700;23.304;2022-12-07T00:38:58;34.07;;;17.30;;
5499;SDS011;2772;42.700;23.304;2022-12-07T00:41:27;36.17;;;17.20;;
5499;SDS011;2772;42.700;23.304;2022-12-07T00:43:55;30.33;;;15.50;;
5499;SDS011;2772;42.700;23.304;2022-12-07T00:46:25;31.10;;;15.97;;
5499;SDS011;2772;42.700;23.304;2022-12-07T00:48:52;35.90;;;15.90;;
5499;SDS011;2772;42.700;23.304;2022-12-07T00:51:20;40.53;;;17.30;;
5499;SDS011;2772;42.700;23.304;2022-12-07T00:53:50;32.97;;;16.97;;
5499;SDS011;2772;42.700;23.304;2022-12-07T00:56:18;28.93;;;16.30;;
5499;SDS011;2772;42.700;23.304;2022-12-07T00:58:51;30.43;;;16.47;;
5499;SDS011;2772;42.700;23.304;2022-12-07T01:01:19;34.40;;;16.37;;
5499;SDS011;2772;42.700;23.304;2022-12-07T01:03:46;33.73;;;17.17;;
5499;SDS011;2772;42.700;23.304;2022-12-07T01:06:14;26.13;;;15.50;;
5499;SDS011;2772;42.700;23.304;2022-12-07T01:08:41;26.63;;;14.53;;
5499;SDS011;2772;42.700;23.304;2022-12-07T01:11:09;27.70;;;15.43;;
5499;SDS011;2772;42.700;23.304;2022-12-07T01:13:38;30.27;;;14.50;;
5499;SDS011;2772;42.700;23.304;2022-12-07T01:16:06;32.30;;;16.30;;
5499;SDS011;2772;42.700;23.304;2022-12-07T01:18:35;28.90;;;17.03;;
5499;SDS011;2772;42.700;23.304;2022-12-07T01:21:03;31.67;;;17.70;;
5499;SDS011;2772;42.700;23.304;2022-12-07T01:23:32;24.43;;;15.50;;
5499;SDS011;2772;42.700;23.304;2022-12-07T01:26:00;27.37;;;14.87;;
5499;SDS011;2772;42.700;23.304;2022-12-07T01:28:29;27.57;;;15.00;;
5499;SDS011;2772;42.700;23.304;2022-12-07T01:30:57;34.07;;;17.20;;
5499;SDS011;2772;42.700;23.304;2022-12-07T01:33:27;30.30;;;16.57;;
5499;SDS011;2772;42.700;23.304;2022-12-07T01:35:55;33.80;;;17.30;;
5499;SDS011;2772;42.700;23.304;2022-12-07T01:38:27;36.03;;;17.10;;
5499;SDS011;2772;42.700;23.304;2022-12-07T01:40:54;37.70;;;16.83;;
5499;SDS011;2772;42.700;23.304;2022-12-07T01:43:21;35.13;;;17.17;;
5499;SDS011;2772;42.700;23.304;2022-12-07T01:45:50;33.00;;;17.10;;
5499;SDS011;2772;42.700;23.304;2022-12-07T01:48:17;28.97;;;16.63;;
5499;SDS011;2772;42.700;23.304;2022-12-07T01:50:50;31.20;;;16.57;;
5499;SDS011;2772;42.700;23.304;2022-12-07T01:53:19;34.33;;;17.97;;
5499;SDS011;2772;42.700;23.304;2022-12-07T01:55:52;31.93;;;16.90;;
5499;SDS011;2772;42.700;23.304;2022-12-07T01:58:20;33.07;;;17.20;;
5499;SDS011;2772;42.700;23.304;2022-12-07T02:00:47;31.23;;;16.10;;
5499;SDS011;2772;42.700;23.304;2022-12-07T02:03:15;33.20;;;17.50;;
5499;SDS011;2772;42.700;23.304;2022-12-07T02:05:46;37.53;;;17.90;;
5499;SDS011;2772;42.700;23.304;2022-12-07T02:08:15;39.03;;;18.33;;
5499;SDS011;2772;42.700;23.304;2022-12-07T02:10:46;36.60;;;17.80;;
5499;SDS011;2772;42.700;23.304;2022-12-07T02:13:15;44.23;;;18.30;;
5499;SDS011;2772;42.700;23.304;2022-12-07T02:15:57;29.53;;;16.13;;
5499;SDS011;2772;42.700;23.304;2022-12-07T02:18:54;34.10;;;18.37;;
5499;SDS011;2772;42.700;23.304;2022-12-07T02:21:31;39.13;;;18.90;;
5499;SDS011;2772;42.700;23.304;2022-12-07T02:27:11;37.17;;;19.87;;
5499;SDS011;2772;42.700;23.304;2022-12-07T02:29:58;42.90;;;19.13;;
5499;SDS011;2772;42.700;23.304;2022-12-07T02:32:29;37.23;;;21.33;;
5499;SDS011;2772;42.700;23.304;2022-12-07T02:35:07;41.30;;;21.00;;
5499;SDS011;2772;42.700;23.304;2022-12-07T02:37:41;45.00;;;23.33;;
5499;SDS011;2772;42.700;23.304;2022-12-07T02:40:14;38.17;;;20.60;;
5499;SDS011;2772;42.700;23.304;2022-12-07T02:42:50;43.67;;;20.87;;
5499;SDS011;2772;42.700;23.304;2022-12-07T02:45:21;43.47;;;22.87;;
5499;SDS011;2772;42.700;23.304;2022-12-07T02:47:51;39.23;;;22.07;;
5499;SDS011;2772;42.700;23.304;2022-12-07T02:50:23;40.17;;;22.10;;
5499;SDS011;2772;42.700;23.304;2022-12-07T02:52:51;41.97;;;21.50;;
5499;SDS011;2772;42.700;23.304;2022-12-07T02:55:18;40.87;;;21.67;;
5499;SDS011;2772;42.700;23.304;2022-12-07T03:00:51;43.57;;;21.40;;
5499;SDS011;2772;42.700;23.304;2022-12-07T03:03:24;47.70;;;21.80;;
5499;SDS011;2772;42.700;23.304;2022-12-07T03:05:54;40.60;;;21.63;;
5499;SDS011;2772;42.700;23.304;2022-12-07T03:08:39;49.30;;;21.70;;
5499;SDS011;2772;42.700;23.304;2022-12-07T03:11:14;44.07;;;21.00;;
5499;SDS011;2772;42.700;23.304;2022-12-07T03:13:48;42.10;;;20.97;;
5499;SDS011;2772;42.700;23.304;2022-12-07T03:16:19;39.30;;;20.10;;
5499;SDS011;2772;42.700;23.304;2022-12-07T03:18:51;35.70;;;20.77;;
5499;SDS011;2772;42.700;23.304;2022-12-07T03:21:22;47.10;;;20.40;;
5499;SDS011;2772;42.700;23.304;2022-12-07T03:23:54;42.13;;;20.03;;
5499;SDS011;2772;42.700;23.304;2022-12-07T03:26:27;39.90;;;20.40;;
5499;SDS011;2772;42.700;23.304;2022-12-07T03:28:58;43.33;;;21.57;;
5499;SDS011;2772;42.700;23.304;2022-12-07T03:31:30;37.93;;;20.13;;
5499;SDS011;2772;42.700;23.304;2022-12-07T03:34:01;38.73;;;21.80;;
5499;SDS011;2772;42.700;23.304;2022-12-07T03:36:35;39.83;;;21.10;;
5499;SDS011;2772;42.700;23.304;2022-12-07T03:39:12;39.50;;;20.10;;
5499;SDS011;2772;42.700;23.304;2022-12-07T03:41:47;41.73;;;21.50;;
5499;SDS011;2772;42.700;23.304;2022-12-07T03:44:15;46.10;;;22.10;;
5499;SDS011;2772;42.700;23.304;2022-12-07T03:46:44;43.33;;;21.57;;
5499;SDS011;2772;42.700;23.304;2022-12-07T03:49:18;44.43;;;22.10;;
5499;SDS011;2772;42.700;23.304;2022-12-07T03:51:51;47.53;;;21.80;;
5499;SDS011;2772;42.700;23.304;2022-12-07T03:54:24;53.43;;;21.60;;
5499;SDS011;2772;42.700;23.304;2022-12-07T03:56:55;48.23;;;22.77;;
5499;SDS011;2772;42.700;23.304;2022-12-07T03:59:24;47.23;;;22.90;;
5499;SDS011;2772;42.700;23.304;2022-12-07T04:01:54;45.03;;;24.70;;
5499;SDS011;2772;42.700;23.304;2022-12-07T04:04:22;43.17;;;22.70;;
5499;SDS011;2772;42.700;23.304;2022-12-07T04:06:50;44.07;;;21.03;;
5499;SDS011;2772;42.700;23.304;2022-12-07T04:09:17;39.53;;;21.43;;
5499;SDS011;2772;42.700;23.304;2022-12-07T04:11:44;50.13;;;22.10;;
5499;SDS011;2772;42.700;23.304;2022-12-07T04:14:11;37.20;;;18.80;;
5499;SDS011;2772;42.700;23.304;2022-12-07T04:16:49;40.43;;;18.90;;
5499;SDS011;2772;42.700;23.304;2022-12-07T04:19:19;37.00;;;18.93;;
5499;SDS011;2772;42.700;23.304;2022-12-07T04:21:47;41.20;;;18.90;;
5499;SDS011;2772;42.700;23.304;2022-12-07T04:24:14;37.63;;;19.50;;
5499;SDS011;2772;42.700;23.304;2022-12-07T04:26:41;35.93;;;19.63;;
5499;SDS011;2772;42.700;23.304;2022-12-07T04:29:09;39.30;;;18.57;;
5499;SDS011;2772;42.700;23.304;2022-12-07T04:31:36;40.10;;;19.83;;
5499;SDS011;2772;42.700;23.304;2022-12-07T04:34:03;37.30;;;18.03;;
5499;SDS011;2772;42.700;23.304;2022-12-07T04:36:32;47.33;;;21.13;;
5499;SDS011;2772;42.700;23.304;2022-12-07T04:38:59;44.27;;;19.90;;
5499;SDS011;2772;42.700;23.304;2022-12-07T04:41:29;35.53;;;18.57;;
5499;SDS011;2772;42.700;23.304;2022-12-07T04:43:56;37.80;;;19.03;;
5499;SDS011;2772;42.700;23.304;2022-12-07T04:46:26;34.90;;;17.50;;
5499;SDS011;2772;42.700;23.304;2022-12-07T04:48:54;35.20;;;15.30;;
5499;SDS011;2772;42.700;23.304;2022-12-07T04:51:22;37.77;;;16.20;;
5499;SDS011;2772;42.700;23.304;2022-12-07T04:53:52;34.90;;;16.10;;
5499;SDS011;2772;42.700;23.304;2022-12-07T04:56:19;36.03;;;16.97;;
5499;SDS011;2772;42.700;23.304;2022-12-07T04:58:46;36.53;;;16.03;;
5499;SDS011;2772;42.700;23.304;2022-12-07T05:01:14;27.07;;;14.67;;
5499;SDS011;2772;42.700;23.304;2022-12-07T05:03:42;28.53;;;15.50;;
5499;SDS011;2772;42.700;23.304;2022-12-07T05:06:09;40.93;;;17.83;;
5499;SDS011;2772;42.700;23.304;2022-12-07T05:08:36;32.83;;;15.83;;
5499;SDS011;2772;42.700;23.304;2022-12-07T05:11:06;29.93;;;15.53;;
5499;SDS011;2772;42.700;23.304;2022-12-07T05:13:34;34.33;;;15.53;;
5499;SDS011;2772;42.700;23.304;2022-12-07T05:16:02;36.90;;;16.67;;
5499;SDS011;2772;42.700;23.304;2022-12-07T05:18:29;32.90;;;16.53;;
5499;SDS011;2772;42.700;23.304;2022-12-07T05:20:56;36.93;;;16.83;;
5499;SDS011;2772;42.700;23.304;2022-12-07T05:23:22;34.93;;;16.70;;
5499;SDS011;2772;42.700;23.304;2022-12-07T05:25:49;45.20;;;22.23;;
5499;SDS011;2772;42.700;23.304;2022-12-07T05:28:19;43.47;;;21.63;;
5499;SDS011;2772;42.700;23.304;2022-12-07T05:30:46;49.50;;;21.67;;
5499;SDS011;2772;42.700;23.304;2022-12-07T05:33:13;46.20;;;21.90;;
5499;SDS011;2772;42.700;23.304;2022-12-07T05:35:45;50.90;;;23.73;;
5499;SDS011;2772;42.700;23.304;2022-12-07T05:38:12;60.70;;;26.20;;
5499;SDS011;2772;42.700;23.304;2022-12-07T05:40:38;55.20;;;24.90;;
5499;SDS011;2772;42.700;23.304;2022-12-07T05:43:05;51.67;;;24.87;;
5499;SDS011;2772;42.700;23.304;2022-12-07T05:45:33;59.10;;;26.50;;
5499;SDS011;2772;42.700;23.304;2022-12-07T05:48:00;46.03;;;23.40;;
5499;SDS011;2772;42.700;23.304;2022-12-07T05:50:28;48.83;;;22.80;;
5499;SDS011;2772;42.700;23.304;2022-12-07T05:52:55;49.53;;;22.50;;
5499;SDS011;2772;42.700;23.304;2022-12-07T05:55:22;47.40;;;22.10;;
5499;SDS011;2772;42.700;23.304;2022-12-07T05:57:49;37.40;;;19.23;;
5499;SDS011;2772;42.700;23.304;2022-12-07T06:00:29;45.17;;;21.77;;
5499;SDS011;2772;42.700;23.304;2022-12-07T06:02:57;40.13;;;17.40;;
5499;SDS011;2772;42.700;23.304;2022-12-07T06:05:24;42.13;;;17.40;;
5499;SDS011;2772;42.700;23.304;2022-12-07T06:07:51;39.57;;;17.33;;
5499;SDS011;2772;42.700;23.304;2022-12-07T06:10:18;36.10;;;16.70;;
5499;SDS011;2772;42.700;23.304;2022-12-07T06:12:44;36.63;;;17.20;;
5499;SDS011;2772;42.700;23.304;2022-12-07T06:15:11;39.13;;;17.30;;
5499;SDS011;2772;42.700;23.304;2022-12-07T06:17:39;40.43;;;16.43;;
5499;SDS011;2772;42.700;23.304;2022-12-07T06:20:08;36.57;;;17.23;;
5499;SDS011;2772;42.700;23.304;2022-12-07T06:22:36;36.73;;;16.50;;
5499;SDS011;2772;42.700;23.304;2022-12-07T06:25:03;43.00;;;18.07;;
5499;SDS011;2772;42.700;23.304;2022-12-07T06:27:30;32.47;;;16.43;;
5499;SDS011;2772;42.700;23.304;2022-12-07T06:29:57;45.90;;;18.60;;
5499;SDS011;2772;42.700;23.304;2022-12-07T06:32:24;36.33;;;17.57;;
5499;SDS011;2772;42.700;23.304;2022-12-07T06:34:51;50.63;;;21.93;;
5499;SDS011;2772;42.700;23.304;2022-12-07T06:37:19;47.87;;;22.77;;
5499;SDS011;2772;42.700;23.304;2022-12-07T06:39:46;44.77;;;20.60;;
5499;SDS011;2772;42.700;23.304;2022-12-07T06:42:13;38.97;;;20.83;;
5499;SDS011;2772;42.700;23.304;2022-12-07T06:44:40;52.60;;;22.67;;
5499;SDS011;2772;42.700;23.304;2022-12-07T06:47:06;50.60;;;23.13;;
5499;SDS011;2772;42.700;23.304;2022-12-07T06:49:34;50.83;;;23.40;;
5499;SDS011;2772;42.700;23.304;2022-12-07T06:52:01;48.43;;;24.03;;
5499;SDS011;2772;42.700;23.304;2022-12-07T06:54:31;51.67;;;22.83;;
5499;SDS011;2772;42.700;23.304;2022-12-07T06:56:58;74.07;;;34.70;;
5499;SDS011;2772;42.700;23.304;2022-12-07T06:59:24;51.27;;;22.53;;
5499;SDS011;2772;42.700;23.304;2022-12-07T07:01:51;51.17;;;23.10;;
5499;SDS011;2772;42.700;23.304;2022-12-07T07:04:20;47.80;;;22.90;;
5499;SDS011;2772;42.700;23.304;2022-12-07T07:06:46;51.43;;;24.90;;
5499;SDS011;2772;42.700;23.304;2022-12-07T07:09:13;44.50;;;22.47;;
5499;SDS011;2772;42.700;23.304;2022-12-07T07:11:45;51.30;;;23.80;;
5499;SDS011;2772;42.700;23.304;2022-12-07T07:14:12;63.50;;;26.47;;
5499;SDS011;2772;42.700;23.304;2022-12-07T07:16:43;59.03;;;27.80;;
5499;SDS011;2772;42.700;23.304;2022-12-07T07:19:10;64.00;;;28.53;;
5499;SDS011;2772;42.700;23.304;2022-12-07T07:21:37;62.03;;;28.20;;
5499;SDS011;2772;42.700;23.304;2022-12-07T07:24:04;68.43;;;30.60;;
5499;SDS011;2772;42.700;23.304;2022-12-07T07:26:32;59.77;;;28.63;;
5499;SDS011;2772;42.700;23.304;2022-12-07T07:29:00;66.50;;;29.40;;
5499;SDS011;2772;42.700;23.304;2022-12-07T07:31:27;62.30;;;28.13;;
5499;SDS011;2772;42.700;23.304;2022-12-07T07:33:53;48.90;;;25.20;;
5499;SDS011;2772;42.700;23.304;2022-12-07T07:36:20;62.90;;;26.23;;
5499;SDS011;2772;42.700;23.304;2022-12-07T07:38:47;51.53;;;24.07;;
5499;SDS011;2772;42.700;23.304;2022-12-07T07:41:14;59.57;;;25.57;;
5499;SDS011;2772;42.700;23.304;2022-12-07T07:43:40;58.20;;;23.80;;
5499;SDS011;2772;42.700;23.304;2022-12-07T07:46:09;51.33;;;26.43;;
5499;SDS011;2772;42.700;23.304;2022-12-07T07:48:35;53.23;;;24.80;;
5499;SDS011;2772;42.700;23.304;2022-12-07T07:51:04;52.57;;;23.33;;
5499;SDS011;2772;42.700;23.304;2022-12-07T07:53:32;56.77;;;25.67;;
5499;SDS011;2772;42.700;23.304;2022-12-07T07:55:58;59.40;;;26.30;;
5499;SDS011;2772;42.700;23.304;2022-12-07T07:58:25;57.93;;;26.03;;
5499;SDS011;2772;42.700;23.304;2022-12-07T08:00:54;51.63;;;24.87;;
5499;SDS011;2772;42.700;23.304;2022-12-07T08:03:22;57.00;;;25.10;;
5499;SDS011;2772;42.700;23.304;2022-12-07T08:05:49;57.97;;;25.23;;
5499;SDS011;2772;42.700;23.304;2022-12-07T08:08:15;58.87;;;24.77;;
5499;SDS011;2772;42.700;23.304;2022-12-07T08:10:42;49.53;;;24.57;;
5499;SDS011;2772;42.700;23.304;2022-12-07T08:13:09;48.10;;;24.07;;
5499;SDS011;2772;42.700;23.304;2022-12-07T08:15:39;55.70;;;25.70;;
5499;SDS011;2772;42.700;23.304;2022-12-07T08:18:06;62.07;;;25.50;;
5499;SDS011;2772;42.700;23.304;2022-12-07T08:20:36;50.13;;;24.30;;
5499;SDS011;2772;42.700;23.304;2022-12-07T08:23:05;52.93;;;24.87;;
5499;SDS011;2772;42.700;23.304;2022-12-07T08:25:34;53.97;;;26.17;;
5499;SDS011;2772;42.700;23.304;2022-12-07T08:28:01;61.53;;;27.70;;
5499;SDS011;2772;42.700;23.304;2022-12-07T08:30:28;64.30;;;26.73;;
5499;SDS011;2772;42.700;23.304;2022-12-07T08:32:55;53.67;;;27.03;;
5499;SDS011;2772;42.700;23.304;2022-12-07T08:35:23;65.10;;;28.43;;
5499;SDS011;2772;42.700;23.304;2022-12-07T08:37:51;54.30;;;27.00;;
5499;SDS011;2772;42.700;23.304;2022-12-07T08:40:18;64.73;;;28.70;;
5499;SDS011;2772;42.700;23.304;2022-12-07T08:42:48;53.57;;;26.57;;
5499;SDS011;2772;42.700;23.304;2022-12-07T08:45:16;63.60;;;28.30;;
5499;SDS011;2772;42.700;23.304;2022-12-07T08:47:44;58.63;;;28.17;;
5499;SDS011;2772;42.700;23.304;2022-12-07T08:50:16;69.83;;;28.97;;
5499;SDS011;2772;42.700;23.304;2022-12-07T08:52:43;53.10;;;27.50;;
5499;SDS011;2772;42.700;23.304;2022-12-07T08:55:11;62.03;;;29.93;;
5499;SDS011;2772;42.700;23.304;2022-12-07T08:57:38;65.37;;;30.60;;
5499;SDS011;2772;42.700;23.304;2022-12-07T09:00:07;66.17;;;34.77;;
5499;SDS011;2772;42.700;23.304;2022-12-07T09:02:34;74.63;;;33.00;;
5499;SDS011;2772;42.700;23.304;2022-12-07T09:05:01;83.33;;;37.37;;
5499;SDS011;2772;42.700;23.304;2022-12-07T09:07:29;62.97;;;31.03;;
5499;SDS011;2772;42.700;23.304;2022-12-07T09:09:58;119.13;;;55.20;;
5499;SDS011;2772;42.700;23.304;2022-12-07T09:12:26;140.67;;;62.97;;
5499;SDS011;2772;42.700;23.304;2022-12-07T09:14:53;125.73;;;56.83;;
5499;SDS011;2772;42.700;23.304;2022-12-07T09:17:20;112.63;;;48.83;;
5499;SDS011;2772;42.700;23.304;2022-12-07T09:19:46;84.13;;;35.77;;
5499;SDS011;2772;42.700;23.304;2022-12-07T09:22:13;97.23;;;42.80;;
5499;SDS011;2772;42.700;23.304;2022-12-07T09:24:40;111.00;;;40.80;;
5499;SDS011;2772;42.700;23.304;2022-12-07T09:27:07;104.10;;;43.03;;
5499;SDS011;2772;42.700;23.304;2022-12-07T09:29:35;74.03;;;37.90;;
5499;SDS011;2772;42.700;23.304;2022-12-07T09:32:03;82.20;;;34.00;;
5499;SDS011;2772;42.700;23.304;2022-12-07T09:34:30;83.57;;;33.73;;
5499;SDS011;2772;42.700;23.304;2022-12-07T09:36:57;84.97;;;32.40;;
5499;SDS011;2772;42.700;23.304;2022-12-07T09:39:24;69.70;;;33.40;;
5499;SDS011;2772;42.700;23.304;2022-12-07T09:41:50;74.63;;;30.63;;
5499;SDS011;2772;42.700;23.304;2022-12-07T09:44:19;78.03;;;32.30;;
5499;SDS011;2772;42.700;23.304;2022-12-07T09:46:50;59.23;;;29.33;;
5499;SDS011;2772;42.700;23.304;2022-12-07T09:49:19;72.87;;;30.50;;
5499;SDS011;2772;42.700;23.304;2022-12-07T09:51:58;67.27;;;30.60;;
5499;SDS011;2772;42.700;23.304;2022-12-07T09:54:27;69.18;;;35.60;;
5499;SDS011;2772;42.700;23.304;2022-12-07T09:56:55;70.10;;;34.80;;
5499;SDS011;2772;42.700;23.304;2022-12-07T09:59:22;66.50;;;32.40;;
5499;SDS011;2772;42.700;23.304;2022-12-07T10:01:50;75.33;;;33.93;;
5499;SDS011;2772;42.700;23.304;2022-12-07T10:04:18;78.10;;;35.72;;
5499;SDS011;2772;42.700;23.304;2022-12-07T10:06:47;70.67;;;32.57;;
5499;SDS011;2772;42.700;23.304;2022-12-07T10:09:16;92.90;;;36.83;;
5499;SDS011;2772;42.700;23.304;2022-12-07T10:12:04;89.47;;;37.17;;
5499;SDS011;2772;42.700;23.304;2022-12-07T10:14:33;65.67;;;28.33;;
5499;SDS011;2772;42.700;23.304;2022-12-07T10:17:05;55.30;;;26.57;;
5499;SDS011;2772;42.700;23.304;2022-12-07T10:20:08;48.60;;;25.00;;
5499;SDS011;2772;42.700;23.304;2022-12-07T10:22:52;64.30;;;28.80;;
5499;SDS011;2772;42.700;23.304;2022-12-07T10:25:21;55.73;;;28.23;;
5499;SDS011;2772;42.700;23.304;2022-12-07T10:27:56;60.60;;;28.60;;
5499;SDS011;2772;42.700;23.304;2022-12-07T10:30:24;52.67;;;29.33;;
5499;SDS011;2772;42.700;23.304;2022-12-07T10:32:53;72.03;;;29.57;;
5499;SDS011;2772;42.700;23.304;2022-12-07T10:35:21;78.77;;;31.80;;
5499;SDS011;2772;42.700;23.304;2022-12-07T10:37:50;51.27;;;24.90;;
5499;SDS011;2772;42.700;23.304;2022-12-07T10:40:25;67.93;;;29.13;;
5499;SDS011;2772;42.700;23.304;2022-12-07T10:43:01;48.37;;;24.80;;
5499;SDS011;2772;42.700;23.304;2022-12-07T10:45:30;48.63;;;26.10;;
5499;SDS011;2772;42.700;23.304;2022-12-07T10:48:00;50.00;;;24.30;;
5499;SDS011;2772;42.700;23.304;2022-12-07T10:50:49;52.50;;;25.80;;
5499;SDS011;2772;42.700;23.304;2022-12-07T10:53:30;48.83;;;24.00;;
5499;SDS011;2772;42.700;23.304;2022-12-07T10:59:02;55.30;;;24.30;;
5499;SDS011;2772;42.700;23.304;2022-12-07T11:01:45;50.90;;;23.30;;
5499;SDS011;2772;42.700;23.304;2022-12-07T11:04:24;52.30;;;23.73;;
5499;SDS011;2772;42.700;23.304;2022-12-07T11:06:57;52.37;;;24.00;;
5499;SDS011;2772;42.700;23.304;2022-12-07T11:09:41;49.33;;;25.30;;
5499;SDS011;2772;42.700;23.304;2022-12-07T11:12:20;54.73;;;23.87;;
5499;SDS011;2772;42.700;23.304;2022-12-07T11:15:03;63.13;;;24.07;;
5499;SDS011;2772;42.700;23.304;2022-12-07T11:17:41;59.43;;;24.37;;
5499;SDS011;2772;42.700;23.304;2022-12-07T11:20:19;51.47;;;23.03;;
5499;SDS011;2772;42.700;23.304;2022-12-07T11:22:56;53.67;;;24.50;;
5499;SDS011;2772;42.700;23.304;2022-12-07T11:25:30;44.50;;;24.43;;
5499;SDS011;2772;42.700;23.304;2022-12-07T11:28:09;51.07;;;23.50;;
5499;SDS011;2772;42.700;23.304;2022-12-07T11:30:46;41.43;;;20.17;;
5499;SDS011;2772;42.700;23.304;2022-12-07T11:33:26;35.80;;;19.80;;
5499;SDS011;2772;42.700;23.304;2022-12-07T11:36:02;38.57;;;21.47;;
5499;SDS011;2772;42.700;23.304;2022-12-07T11:38:38;42.10;;;19.80;;
5499;SDS011;2772;42.700;23.304;2022-12-07T11:41:09;44.80;;;21.90;;
5499;SDS011;2772;42.700;23.304;2022-12-07T11:43:43;48.03;;;20.40;;
5499;SDS011;2772;42.700;23.304;2022-12-07T11:46:24;43.00;;;20.07;;
5499;SDS011;2772;42.700;23.304;2022-12-07T11:48:55;37.27;;;20.20;;
5499;SDS011;2772;42.700;23.304;2022-12-07T11:51:29;49.80;;;20.10;;
5499;SDS011;2772;42.700;23.304;2022-12-07T11:54:01;44.97;;;18.93;;
5499;SDS011;2772;42.700;23.304;2022-12-07T11:56:31;36.83;;;18.90;;
5499;SDS011;2772;42.700;23.304;2022-12-07T11:59:04;47.83;;;21.20;;
5499;SDS011;2772;42.700;23.304;2022-12-07T12:01:42;45.60;;;20.00;;
5499;SDS011;2772;42.700;23.304;2022-12-07T12:04:22;47.53;;;21.00;;
5499;SDS011;2772;42.700;23.304;2022-12-07T12:06:56;51.37;;;22.57;;
5499;SDS011;2772;42.700;23.304;2022-12-07T12:09:24;47.53;;;18.17;;
5499;SDS011;2772;42.700;23.304;2022-12-07T12:12:06;37.97;;;18.00;;
5499;SDS011;2772;42.700;23.304;2022-12-07T12:14:48;38.97;;;17.20;;
5499;SDS011;2772;42.700;23.304;2022-12-07T12:17:38;32.10;;;15.20;;
5499;SDS011;2772;42.700;23.304;2022-12-07T12:20:19;35.20;;;18.10;;
5499;SDS011;2772;42.700;23.304;2022-12-07T12:22:52;46.50;;;18.13;;
5499;SDS011;2772;42.700;23.304;2022-12-07T12:25:23;30.30;;;17.07;;
5499;SDS011;2772;42.700;23.304;2022-12-07T12:27:54;32.47;;;16.83;;
5499;SDS011;2772;42.700;23.304;2022-12-07T12:30:25;31.10;;;16.40;;
5499;SDS011;2772;42.700;23.304;2022-12-07T12:33:03;33.00;;;14.40;;
5499;SDS011;2772;42.700;23.304;2022-12-07T12:35:32;33.37;;;16.43;;
5499;SDS011;2772;42.700;23.304;2022-12-07T12:41:00;35.93;;;17.20;;
5499;SDS011;2772;42.700;23.304;2022-12-07T12:43:41;33.60;;;17.60;;
5499;SDS011;2772;42.700;23.304;2022-12-07T12:55:31;28.93;;;13.93;;
5499;SDS011;2772;42.700;23.304;2022-12-07T12:58:36;26.27;;;14.37;;
5499;SDS011;2772;42.700;23.304;2022-12-07T13:04:30;27.03;;;15.97;;
5499;SDS011;2772;42.700;23.304;2022-12-07T13:07:08;26.20;;;15.30;;
5499;SDS011;2772;42.700;23.304;2022-12-07T13:09:38;35.00;;;17.50;;
5499;SDS011;2772;42.700;23.304;2022-12-07T13:12:15;31.70;;;16.53;;
5499;SDS011;2772;42.700;23.304;2022-12-07T13:14:55;40.17;;;15.17;;
5499;SDS011;2772;42.700;23.304;2022-12-07T13:23:27;28.20;;;14.87;;
5499;SDS011;2772;42.700;23.304;2022-12-07T13:26:12;30.80;;;14.60;;
5499;SDS011;2772;42.700;23.304;2022-12-07T13:28:43;32.87;;;14.07;;
5499;SDS011;2772;42.700;23.304;2022-12-07T13:34:00;38.37;;;15.50;;
5499;SDS011;2772;42.700;23.304;2022-12-07T13:36:29;31.60;;;15.70;;
5499;SDS011;2772;42.700;23.304;2022-12-07T13:39:16;28.73;;;15.50;;
5499;SDS011;2772;42.700;23.304;2022-12-07T13:41:49;35.73;;;14.97;;
5499;SDS011;2772;42.700;23.304;2022-12-07T13:44:18;35.20;;;15.37;;
5499;SDS011;2772;42.700;23.304;2022-12-07T13:46:51;29.00;;;14.70;;
5499;SDS011;2772;42.700;23.304;2022-12-07T13:49:22;32.17;;;15.17;;
5499;SDS011;2772;42.700;23.304;2022-12-07T13:51:51;33.13;;;15.03;;
5499;SDS011;2772;42.700;23.304;2022-12-07T13:54:19;39.10;;;15.47;;
5499;SDS011;2772;42.700;23.304;2022-12-07T13:56:47;33.63;;;15.50;;
5499;SDS011;2772;42.700;23.304;2022-12-07T13:59:17;35.37;;;16.70;;
5499;SDS011;2772;42.700;23.304;2022-12-07T14:01:47;36.60;;;15.87;;
5499;SDS011;2772;42.700;23.304;2022-12-07T14:04:29;36.53;;;16.53;;
5499;SDS011;2772;42.700;23.304;2022-12-07T14:06:58;40.53;;;17.93;;
5499;SDS011;2772;42.700;23.304;2022-12-07T14:09:26;35.27;;;15.17;;
5499;SDS011;2772;42.700;23.304;2022-12-07T14:11:56;24.67;;;14.23;;
5499;SDS011;2772;42.700;23.304;2022-12-07T14:14:26;28.20;;;15.40;;
5499;SDS011;2772;42.700;23.304;2022-12-07T14:16:56;29.93;;;15.93;;
5499;SDS011;2772;42.700;23.304;2022-12-07T14:19:40;36.33;;;15.60;;
5499;SDS011;2772;42.700;23.304;2022-12-07T14:22:09;37.80;;;17.87;;
5499;SDS011;2772;42.700;23.304;2022-12-07T14:24:46;32.77;;;17.23;;
5499;SDS011;2772;42.700;23.304;2022-12-07T14:27:17;27.27;;;14.40;;
5499;SDS011;2772;42.700;23.304;2022-12-07T14:29:47;27.33;;;15.10;;
5499;SDS011;2772;42.700;23.304;2022-12-07T14:32:21;29.47;;;15.40;;
5499;SDS011;2772;42.700;23.304;2022-12-07T14:35:03;29.10;;;15.70;;
5499;SDS011;2772;42.700;23.304;2022-12-07T14:37:36;32.57;;;15.70;;
5499;SDS011;2772;42.700;23.304;2022-12-07T14:40:04;49.57;;;20.80;;
5499;SDS011;2772;42.700;23.304;2022-12-07T14:42:32;48.80;;;19.80;;
5499;SDS011;2772;42.700;23.304;2022-12-07T14:45:02;29.70;;;16.60;;
5499;SDS011;2772;42.700;23.304;2022-12-07T14:47:29;34.23;;;16.73;;
5499;SDS011;2772;42.700;23.304;2022-12-07T14:49:56;48.00;;;16.97;;
5499;SDS011;2772;42.700;23.304;2022-12-07T14:52:23;39.27;;;18.20;;
5499;SDS011;2772;42.700;23.304;2022-12-07T14:54:53;31.20;;;17.93;;
5499;SDS011;2772;42.700;23.304;2022-12-07T14:57:20;37.87;;;21.10;;
5499;SDS011;2772;42.700;23.304;2022-12-07T14:59:46;59.47;;;20.20;;
5499;SDS011;2772;42.700;23.304;2022-12-07T15:02:14;59.80;;;19.37;;
5499;SDS011;2772;42.700;23.304;2022-12-07T15:04:41;64.20;;;28.20;;
5499;SDS011;2772;42.700;23.304;2022-12-07T15:07:18;55.77;;;19.20;;
5499;SDS011;2772;42.700;23.304;2022-12-07T15:09:46;43.67;;;21.30;;
5499;SDS011;2772;42.700;23.304;2022-12-07T15:12:13;44.53;;;19.20;;
5499;SDS011;2772;42.700;23.304;2022-12-07T15:14:40;36.50;;;18.90;;
5499;SDS011;2772;42.700;23.304;2022-12-07T15:17:08;42.37;;;20.10;;
5499;SDS011;2772;42.700;23.304;2022-12-07T15:19:39;45.33;;;20.77;;
5499;SDS011;2772;42.700;23.304;2022-12-07T15:22:07;41.53;;;20.60;;
5499;SDS011;2772;42.700;23.304;2022-12-07T15:24:35;72.33;;;25.00;;
5499;SDS011;2772;42.700;23.304;2022-12-07T15:27:03;57.43;;;27.20;;